createdAt,value
2023-02-07T00:00:26.092Z,39.63
2023-02-07T00:02:55.499Z,39.20
2023-02-07T00:05:23.118Z,35.65
2023-02-07T00:07:50.667Z,38.47
2023-02-07T00:10:18.107Z,40.88
2023-02-07T00:12:46.896Z,41.25
2023-02-07T00:15:14.496Z,44.15
2023-02-07T00:17:41.944Z,45.60
2023-02-07T00:20:10.599Z,40.58
2023-02-07T00:22:38.072Z,41.33
2023-02-07T00:25:06.612Z,45.38
2023-02-07T00:27:34.082Z,44.58
2023-02-07T00:30:02.878Z,43.33
2023-02-07T00:32:31.945Z,46.70
2023-02-07T00:34:59.526Z,47.45
2023-02-07T00:37:26.972Z,41.78
2023-02-07T00:39:54.553Z,44.83
2023-02-07T00:42:21.999Z,46.40
2023-02-07T00:44:49.467Z,46.03
2023-02-07T00:47:18.301Z,43.08
2023-02-07T00:49:45.821Z,46.40
2023-02-07T00:52:13.263Z,49.85
2023-02-07T00:54:40.743Z,50.38
2023-02-07T00:57:08.258Z,45.92
2023-02-07T00:59:35.746Z,44.15
2023-02-07T01:02:03.267Z,40.45
2023-02-07T01:04:32.057Z,44.17
2023-02-07T01:06:59.551Z,43.67
2023-02-07T01:09:27.025Z,39.40
2023-02-07T01:11:54.473Z,40.03
2023-02-07T01:14:22.048Z,45.85
2023-02-07T01:16:50.153Z,42.25
2023-02-07T01:19:18.414Z,45.60
2023-02-07T01:21:47.279Z,43.03
2023-02-07T01:24:14.724Z,44.47
2023-02-07T01:26:42.279Z,43.83
2023-02-07T01:29:11.801Z,43.40
2023-02-07T01:31:39.573Z,40.00
2023-02-07T01:34:07.121Z,46.53
2023-02-07T01:36:34.846Z,45.97
2023-02-07T01:39:04.987Z,42.05
2023-02-07T01:41:32.519Z,44.50
2023-02-07T01:44:02.674Z,46.85
2023-02-07T01:46:31.516Z,44.90
2023-02-07T01:49:00.200Z,41.50
2023-02-07T01:51:29.158Z,45.50
2023-02-07T01:53:59.132Z,47.45
2023-02-07T01:56:32.003Z,44.05
2023-02-07T01:59:00.123Z,42.47
2023-02-07T02:01:27.888Z,45.20
2023-02-07T02:03:57.033Z,41.55
2023-02-07T02:06:26.548Z,46.13
2023-02-07T02:08:56.067Z,46.75
2023-02-07T02:11:42.335Z,42.78
2023-02-07T02:14:19.915Z,43.33
2023-02-07T02:16:54.150Z,39.58
2023-02-07T02:19:44.978Z,45.58
2023-02-07T02:22:51.089Z,47.03
2023-02-07T02:25:38.387Z,51.55
2023-02-07T02:28:23.281Z,46.63
2023-02-07T02:31:26.811Z,50.97
2023-02-07T02:33:58.289Z,52.55
2023-02-07T02:39:01.191Z,49.17
2023-02-07T02:41:32.975Z,50.92
2023-02-07T02:44:03.864Z,49.22
2023-02-07T02:46:34.710Z,48.25
2023-02-07T02:49:04.424Z,50.83
2023-02-07T02:51:32.225Z,47.25
2023-02-07T02:54:00.748Z,46.90
2023-02-07T02:56:46.718Z,41.92
2023-02-07T02:59:27.512Z,43.08
2023-02-07T03:02:00.493Z,47.95
2023-02-07T03:04:36.385Z,48.08
2023-02-07T03:07:11.982Z,44.17
2023-02-07T03:09:44.270Z,46.20
2023-02-07T03:12:19.403Z,45.97
2023-02-07T03:14:55.415Z,45.47
2023-02-07T03:17:27.471Z,50.10
2023-02-07T03:20:03.390Z,47.47
2023-02-07T03:22:31.308Z,50.08
2023-02-07T03:25:00.146Z,50.20
2023-02-07T03:27:29.205Z,47.95
2023-02-07T03:29:59.879Z,48.10
2023-02-07T03:32:29.695Z,37.70
2023-02-07T03:35:01.147Z,46.42
2023-02-07T03:39:57.551Z,48.55
2023-02-07T03:42:28.981Z,46.05
2023-02-07T03:47:24.049Z,40.72
2023-02-07T03:49:51.544Z,47.20
2023-02-07T03:52:20.464Z,40.00
2023-02-07T03:54:47.935Z,43.50
2023-02-07T03:57:15.361Z,41.63
2023-02-07T03:59:43.018Z,41.33
2023-02-07T04:02:10.547Z,42.20
2023-02-07T04:04:38.373Z,41.17
2023-02-07T04:07:06.100Z,43.08
2023-02-07T04:09:34.848Z,44.10
2023-02-07T04:12:02.379Z,44.28
2023-02-07T04:14:29.793Z,40.20
2023-02-07T04:16:57.309Z,37.53
2023-02-07T04:19:24.931Z,36.45
2023-02-07T04:21:52.715Z,39.38
2023-02-07T04:24:20.188Z,40.67
2023-02-07T04:26:48.968Z,41.83
2023-02-07T04:29:16.645Z,37.42
2023-02-07T04:31:44.212Z,40.40
2023-02-07T04:34:13.007Z,40.00
2023-02-07T04:36:40.492Z,41.28
2023-02-07T04:39:08.025Z,41.33
2023-02-07T04:41:35.545Z,40.60
2023-02-07T04:44:04.344Z,40.60
2023-02-07T04:46:31.774Z,39.08
2023-02-07T04:48:59.240Z,37.53
2023-02-07T04:51:26.936Z,40.97
2023-02-07T04:53:54.403Z,36.70
2023-02-07T04:56:21.885Z,38.13
2023-02-07T04:58:49.415Z,36.58
2023-02-07T05:01:18.495Z,33.75
2023-02-07T05:03:46.093Z,34.95
2023-02-07T05:06:14.110Z,33.25
2023-02-07T05:08:41.617Z,34.05
2023-02-07T05:11:09.100Z,34.13
2023-02-07T05:13:36.549Z,34.95
2023-02-07T05:16:04.955Z,34.67
2023-02-07T05:18:34.092Z,35.80
2023-02-07T05:21:01.686Z,35.40
2023-02-07T05:23:29.422Z,37.45
2023-02-07T05:25:56.907Z,35.95
2023-02-07T05:28:24.380Z,33.78
2023-02-07T05:30:54.354Z,38.97
2023-02-07T05:33:20.985Z,34.08
2023-02-07T05:35:49.752Z,32.33
2023-02-07T05:38:19.232Z,32.78
2023-02-07T05:40:46.999Z,29.25
2023-02-07T05:43:15.024Z,32.03
2023-02-07T05:45:42.554Z,31.90
2023-02-07T05:48:10.132Z,29.75
2023-02-07T05:50:37.592Z,31.35
2023-02-07T05:53:06.509Z,30.25
2023-02-07T05:55:34.008Z,31.70
2023-02-07T05:58:01.507Z,33.75
2023-02-07T06:00:28.998Z,31.65
2023-02-07T06:02:56.467Z,28.58
2023-02-07T06:05:24.789Z,28.23
2023-02-07T06:07:52.524Z,28.25
2023-02-07T06:10:21.393Z,31.45
2023-02-07T06:12:48.829Z,29.23
2023-02-07T06:15:16.478Z,28.55
2023-02-07T06:17:43.979Z,28.25
2023-02-07T06:20:12.351Z,27.70
2023-02-07T06:22:39.794Z,28.35
2023-02-07T06:25:11.683Z,29.50
2023-02-07T06:27:41.512Z,30.08
2023-02-07T06:30:10.801Z,30.02
2023-02-07T06:32:38.275Z,29.25
2023-02-07T06:35:07.299Z,28.52
2023-02-07T06:37:34.888Z,30.45
2023-02-07T06:40:03.273Z,32.42
2023-02-07T06:42:30.704Z,33.08
2023-02-07T06:44:59.588Z,33.00
2023-02-07T06:47:27.009Z,35.13
2023-02-07T06:49:54.470Z,36.33
2023-02-07T06:52:21.902Z,38.55
2023-02-07T06:54:49.353Z,39.67
2023-02-07T06:57:16.822Z,41.85
2023-02-07T06:59:44.340Z,42.00
2023-02-07T07:02:13.896Z,39.33
2023-02-07T07:04:41.341Z,39.42
2023-02-07T07:07:08.974Z,40.78
2023-02-07T07:09:36.432Z,38.88
2023-02-07T07:12:04.686Z,40.30
2023-02-07T07:14:32.638Z,36.25
2023-02-07T07:17:00.272Z,34.53
2023-02-07T07:19:29.106Z,32.97
2023-02-07T07:21:56.557Z,35.33
2023-02-07T07:24:24.058Z,35.70
2023-02-07T07:26:51.741Z,38.75
2023-02-07T07:29:19.994Z,35.97
2023-02-07T07:31:48.078Z,38.53
2023-02-07T07:34:15.896Z,36.72
2023-02-07T07:36:44.813Z,36.72
2023-02-07T07:39:13.187Z,37.88
2023-02-07T07:41:40.628Z,35.10
2023-02-07T07:44:08.157Z,35.63
2023-02-07T07:46:35.754Z,31.70
2023-02-07T07:49:03.256Z,31.55
2023-02-07T07:51:30.802Z,29.50
2023-02-07T07:53:59.610Z,30.40
2023-02-07T07:56:29.332Z,29.08
2023-02-07T07:58:56.924Z,28.30
2023-02-07T08:01:24.481Z,27.15
2023-02-07T08:03:52.035Z,25.35
2023-02-07T08:06:19.579Z,25.90
2023-02-07T08:08:47.314Z,26.27
2023-02-07T08:11:16.194Z,26.45
2023-02-07T08:13:43.648Z,25.20
2023-02-07T08:16:12.002Z,23.42
2023-02-07T08:18:39.499Z,25.35
2023-02-07T08:21:07.295Z,24.50
2023-02-07T08:23:35.354Z,24.13
2023-02-07T08:26:03.068Z,22.55
2023-02-07T08:28:33.483Z,22.38
2023-02-07T08:31:01.688Z,23.27
2023-02-07T08:33:30.347Z,22.92
2023-02-07T08:35:58.480Z,23.80
2023-02-07T08:38:25.959Z,23.45
2023-02-07T08:40:53.400Z,24.77
2023-02-07T08:43:20.846Z,25.42
2023-02-07T08:45:50.032Z,25.25
2023-02-07T08:48:17.587Z,25.23
2023-02-07T08:50:45.016Z,23.75
2023-02-07T08:53:12.529Z,24.77
2023-02-07T08:55:41.304Z,25.48
2023-02-07T08:58:08.970Z,35.22
2023-02-07T09:00:36.594Z,26.30
2023-02-07T09:03:05.948Z,24.25
2023-02-07T09:05:33.815Z,23.77
2023-02-07T09:08:01.428Z,29.38
2023-02-07T09:10:29.026Z,23.45
2023-02-07T09:12:56.516Z,23.67
2023-02-07T09:15:23.963Z,22.63
2023-02-07T09:17:51.473Z,22.92
2023-02-07T09:20:20.339Z,22.10
2023-02-07T09:23:05.300Z,22.88
2023-02-07T09:25:32.807Z,19.85
2023-02-07T09:28:00.444Z,22.67
2023-02-07T09:30:27.912Z,21.63
2023-02-07T09:32:55.416Z,22.77
2023-02-07T09:35:24.250Z,20.95
2023-02-07T09:37:54.044Z,19.92
2023-02-07T09:40:22.618Z,20.60
2023-02-07T09:42:55.593Z,20.48
2023-02-07T09:45:25.849Z,21.40
2023-02-07T09:47:55.803Z,20.58
2023-02-07T09:50:28.376Z,20.15
2023-02-07T09:52:57.737Z,20.30
2023-02-07T09:55:27.088Z,22.38
2023-02-07T09:57:58.659Z,21.30
2023-02-07T10:00:28.807Z,21.50
2023-02-07T10:02:59.325Z,22.60
2023-02-07T10:05:34.794Z,20.50
2023-02-07T10:08:02.333Z,19.25
2023-02-07T10:10:38.091Z,18.77
2023-02-07T10:13:17.734Z,20.00
2023-02-07T10:15:54.966Z,20.00
2023-02-07T10:18:33.144Z,20.05
2023-02-07T10:21:06.795Z,22.05
2023-02-07T10:23:41.487Z,18.88
2023-02-07T10:26:16.753Z,21.90
2023-02-07T10:29:04.040Z,20.40
2023-02-07T10:31:33.732Z,18.80
2023-02-07T10:34:07.186Z,21.15
2023-02-07T10:36:36.061Z,20.45
2023-02-07T10:39:09.776Z,19.95
2023-02-07T10:41:38.965Z,20.67
2023-02-07T10:44:07.503Z,20.23
2023-02-07T10:46:36.031Z,19.92
2023-02-07T10:49:03.793Z,20.75
2023-02-07T10:51:36.226Z,18.85
2023-02-07T10:54:08.707Z,19.83
2023-02-07T10:56:41.985Z,19.45
2023-02-07T10:59:32.356Z,20.70
2023-02-07T11:02:00.423Z,17.73
2023-02-07T11:04:36.083Z,17.88
2023-02-07T11:07:08.462Z,18.23
2023-02-07T11:09:37.769Z,19.17
2023-02-07T11:12:16.233Z,19.02
2023-02-07T11:15:00.453Z,18.00
2023-02-07T11:17:28.501Z,17.60
2023-02-07T11:19:56.084Z,18.15
2023-02-07T11:22:26.026Z,17.92
2023-02-07T11:24:54.691Z,18.58
2023-02-07T11:27:23.201Z,18.77
2023-02-07T11:29:53.235Z,19.10
2023-02-07T11:32:23.622Z,16.00
2023-02-07T11:34:53.569Z,17.10
2023-02-07T11:37:26.967Z,15.82
2023-02-07T11:39:56.129Z,15.15
2023-02-07T11:42:26.284Z,14.90
2023-02-07T11:44:54.073Z,14.88
2023-02-07T11:47:24.496Z,15.93
2023-02-07T11:49:54.498Z,16.75
2023-02-07T11:52:23.122Z,17.38
2023-02-07T11:54:54.225Z,17.52
2023-02-07T11:57:23.001Z,15.93
2023-02-07T11:59:55.822Z,15.80
2023-02-07T12:02:24.686Z,18.27
2023-02-07T12:04:54.739Z,17.58
2023-02-07T12:07:25.990Z,17.85
2023-02-07T12:09:57.169Z,18.05
2023-02-07T12:12:31.213Z,18.35
2023-02-07T12:15:01.320Z,17.75
2023-02-07T12:17:33.912Z,19.27
2023-02-07T12:20:07.205Z,17.55
2023-02-07T12:22:42.112Z,17.45
2023-02-07T12:25:18.820Z,18.73
2023-02-07T12:27:48.961Z,17.15
2023-02-07T12:30:19.023Z,16.90
2023-02-07T12:32:51.648Z,17.40
2023-02-07T12:35:24.292Z,15.98
2023-02-07T12:37:55.683Z,15.43
2023-02-07T12:40:31.691Z,13.85
2023-02-07T12:43:00.759Z,14.82
2023-02-07T12:45:39.978Z,14.55
2023-02-07T12:48:12.661Z,14.07
2023-02-07T12:50:56.300Z,14.70
2023-02-07T12:53:32.680Z,16.83
2023-02-07T12:56:10.117Z,18.73
2023-02-07T12:58:47.807Z,17.67
2023-02-07T13:01:20.706Z,18.75
2023-02-07T13:04:12.002Z,18.65
2023-02-07T13:06:42.962Z,16.53
2023-02-07T13:09:13.360Z,12.63
2023-02-07T13:11:47.715Z,16.40
2023-02-07T13:14:30.566Z,17.83
2023-02-07T13:17:12.442Z,19.33
2023-02-07T13:19:45.097Z,18.58
2023-02-07T13:22:17.946Z,19.15
2023-02-07T13:24:47.047Z,17.27
2023-02-07T13:27:18.640Z,16.75
2023-02-07T13:29:46.918Z,17.85
2023-02-07T13:32:18.538Z,17.20
2023-02-07T13:34:49.421Z,15.82
2023-02-07T13:37:17.605Z,16.65
2023-02-07T13:39:52.204Z,17.52
2023-02-07T13:42:24.953Z,16.83
2023-02-07T13:44:56.789Z,15.90
2023-02-07T13:50:20.419Z,16.27
2023-02-07T13:52:53.690Z,17.73
2023-02-07T13:55:28.322Z,15.57
2023-02-07T13:58:14.627Z,15.13
2023-02-07T14:01:01.037Z,14.02
2023-02-07T14:03:31.153Z,15.88
2023-02-07T14:06:16.932Z,15.38
2023-02-07T14:08:44.860Z,15.10
2023-02-07T14:11:27.222Z,13.90
2023-02-07T14:14:05.145Z,13.80
2023-02-07T14:16:46.304Z,14.43
2023-02-07T14:19:14.258Z,10.50
2023-02-07T14:21:43.181Z,14.02
2023-02-07T14:24:32.447Z,15.32
2023-02-07T14:27:02.597Z,11.70
2023-02-07T14:30:03.295Z,14.13
2023-02-07T14:32:34.448Z,13.95
2023-02-07T14:35:05.593Z,11.30
2023-02-07T14:37:46.300Z,12.88
2023-02-07T14:40:21.270Z,13.70
2023-02-07T14:43:00.262Z,13.23
2023-02-07T14:45:32.011Z,12.68
2023-02-07T14:50:30.698Z,13.25
2023-02-07T14:53:00.611Z,9.13
2023-02-07T14:55:31.962Z,11.35
2023-02-07T14:58:01.751Z,14.15
2023-02-07T15:00:34.863Z,15.48
2023-02-07T15:03:06.138Z,13.98
2023-02-07T15:05:35.333Z,13.45
2023-02-07T15:08:18.292Z,13.13
2023-02-07T15:10:52.428Z,13.40
2023-02-07T15:13:24.804Z,11.27
2023-02-07T15:15:55.215Z,12.70
2023-02-07T15:18:24.531Z,11.93
2023-02-07T15:20:53.721Z,10.98
2023-02-07T15:23:21.969Z,10.82
2023-02-07T15:25:49.508Z,11.57
2023-02-07T15:28:26.698Z,10.75
2023-02-07T15:30:58.347Z,12.25
2023-02-07T15:33:27.287Z,13.02
2023-02-07T15:35:54.796Z,12.43
2023-02-07T15:38:23.836Z,11.02
2023-02-07T15:40:52.336Z,12.23
2023-02-07T15:43:29.015Z,12.90
2023-02-07T15:46:03.385Z,12.85
2023-02-07T15:48:31.625Z,13.75
2023-02-07T15:51:01.569Z,14.52
2023-02-07T15:53:30.742Z,14.80
2023-02-07T15:55:58.622Z,15.02
2023-02-07T15:58:29.557Z,15.32
2023-02-07T16:01:02.662Z,15.27
2023-02-07T16:03:32.037Z,16.30
2023-02-07T16:06:03.276Z,15.13
2023-02-07T16:08:33.428Z,14.95
2023-02-07T16:11:15.234Z,14.95
2023-02-07T16:13:47.696Z,12.65
2023-02-07T16:16:27.792Z,13.85
2023-02-07T16:19:06.263Z,14.00
2023-02-07T16:21:34.297Z,13.75
2023-02-07T16:24:07.027Z,13.65
2023-02-07T16:26:34.575Z,14.38
2023-02-07T16:29:02.063Z,13.68
2023-02-07T16:31:31.772Z,14.13
2023-02-07T16:33:59.300Z,14.95
2023-02-07T16:36:27.234Z,14.48
2023-02-07T16:38:54.696Z,13.93
2023-02-07T16:41:28.248Z,14.98
2023-02-07T16:43:56.337Z,14.27
2023-02-07T16:46:23.804Z,13.95
2023-02-07T16:48:52.867Z,13.93
2023-02-07T16:51:20.483Z,15.93
2023-02-07T16:53:48.082Z,17.45
2023-02-07T16:56:22.392Z,16.25
2023-02-07T16:58:49.992Z,16.73
2023-02-07T17:01:19.409Z,16.30
2023-02-07T17:03:47.788Z,15.52
2023-02-07T17:06:17.553Z,15.63
2023-02-07T17:08:45.697Z,17.73
2023-02-07T17:11:15.742Z,18.20
2023-02-07T17:13:43.366Z,15.77
2023-02-07T17:16:12.630Z,15.75
2023-02-07T17:18:40.409Z,16.52
2023-02-07T17:21:08.840Z,17.95
2023-02-07T17:23:37.655Z,16.95
2023-02-07T17:26:06.389Z,19.08
2023-02-07T17:28:33.886Z,19.33
2023-02-07T17:31:01.384Z,18.58
2023-02-07T17:33:28.924Z,17.50
2023-02-07T17:35:56.424Z,16.05
2023-02-07T17:38:23.867Z,16.20
2023-02-07T17:40:53.147Z,16.83
2023-02-07T17:43:20.808Z,16.88
2023-02-07T17:45:48.278Z,20.80
2023-02-07T17:48:15.764Z,19.40
2023-02-07T17:50:44.053Z,19.25
2023-02-07T17:53:11.742Z,21.02
2023-02-07T17:55:39.591Z,23.95
2023-02-07T17:58:08.501Z,21.25
2023-02-07T18:00:39.199Z,20.23
2023-02-07T18:03:07.763Z,18.75
2023-02-07T18:05:35.280Z,19.38
2023-02-07T18:08:02.995Z,19.20
2023-02-07T18:10:32.908Z,19.60
2023-02-07T18:13:01.115Z,24.48
2023-02-07T18:15:31.829Z,30.58
2023-02-07T18:17:59.334Z,24.50
2023-02-07T18:20:28.781Z,19.02
2023-02-07T18:22:59.758Z,23.60
2023-02-07T18:25:28.404Z,25.15
2023-02-07T18:27:56.675Z,21.33
2023-02-07T18:30:26.292Z,22.05
2023-02-07T18:32:55.253Z,26.88
2023-02-07T18:35:23.012Z,28.15
2023-02-07T18:37:50.569Z,27.23
2023-02-07T18:40:18.366Z,29.70
2023-02-07T18:42:45.975Z,28.23
2023-02-07T18:45:14.535Z,25.73
2023-02-07T18:47:42.814Z,23.42
2023-02-07T18:50:13.793Z,22.25
2023-02-07T18:52:41.274Z,15.75
2023-02-07T18:55:10.188Z,21.60
2023-02-07T18:57:37.651Z,20.75
2023-02-07T19:00:05.845Z,20.40
2023-02-07T19:02:33.438Z,20.98
2023-02-07T19:05:01.759Z,21.25
2023-02-07T19:07:30.576Z,21.98
2023-02-07T19:09:58.032Z,20.70
2023-02-07T19:12:25.600Z,19.13
2023-02-07T19:14:53.047Z,18.77
2023-02-07T19:17:20.626Z,19.60
2023-02-07T19:19:48.121Z,18.40
2023-02-07T19:22:21.585Z,18.90
2023-02-07T19:24:55.540Z,18.33
2023-02-07T19:27:23.144Z,18.27
2023-02-07T19:29:50.770Z,18.02
2023-02-07T19:32:18.913Z,17.33
2023-02-07T19:34:49.040Z,17.27
2023-02-07T19:37:16.597Z,18.00
2023-02-07T19:39:46.107Z,17.65
2023-02-07T19:42:14.940Z,18.35
2023-02-07T19:44:42.367Z,19.98
2023-02-07T19:47:10.771Z,17.88
2023-02-07T19:49:38.531Z,18.13
2023-02-07T19:52:06.047Z,17.63
2023-02-07T19:54:33.754Z,17.20
2023-02-07T19:57:01.250Z,17.27
2023-02-07T19:59:30.079Z,17.98
2023-02-07T20:01:57.638Z,16.70
2023-02-07T20:04:25.138Z,17.73
2023-02-07T20:06:52.767Z,19.90
2023-02-07T20:09:20.258Z,19.45
2023-02-07T20:11:47.777Z,20.50
2023-02-07T20:14:15.831Z,19.33
2023-02-07T20:16:44.680Z,17.88
2023-02-07T20:19:12.334Z,20.25
2023-02-07T20:21:40.541Z,19.38
2023-02-07T20:24:09.028Z,18.73
2023-02-07T20:26:39.708Z,19.80
2023-02-07T20:29:09.419Z,20.73
2023-02-07T20:31:37.663Z,22.48
2023-02-07T20:34:06.550Z,21.50
2023-02-07T20:36:40.631Z,20.10
2023-02-07T20:39:10.341Z,20.95
2023-02-07T20:41:41.133Z,21.45
2023-02-07T20:44:12.742Z,16.27
2023-02-07T20:46:41.209Z,20.15
2023-02-07T20:49:14.522Z,20.90
2023-02-07T20:51:42.429Z,21.73
2023-02-07T20:54:11.912Z,23.30
2023-02-07T20:56:39.609Z,21.92
2023-02-07T20:59:08.157Z,24.98
2023-02-07T21:01:36.484Z,24.90
2023-02-07T21:04:06.408Z,24.73
2023-02-07T21:06:36.208Z,24.58
2023-02-07T21:09:06.987Z,22.90
2023-02-07T21:11:37.061Z,22.58
2023-02-07T21:14:06.158Z,22.90
2023-02-07T21:16:34.029Z,23.13
2023-02-07T21:19:01.683Z,22.13
2023-02-07T21:21:29.854Z,23.88
2023-02-07T21:23:59.008Z,24.77
2023-02-07T21:26:27.636Z,25.60
2023-02-07T21:28:58.321Z,27.00
2023-02-07T21:31:26.013Z,28.07
2023-02-07T21:33:53.522Z,30.75
2023-02-07T21:36:22.534Z,33.53
2023-02-07T21:38:53.451Z,32.50
2023-02-07T21:41:24.842Z,31.02
2023-02-07T21:43:52.485Z,29.45
2023-02-07T21:46:22.990Z,29.85
2023-02-07T21:48:54.005Z,30.08
2023-02-07T21:51:23.849Z,31.65
2023-02-07T21:53:52.495Z,28.42
2023-02-07T21:56:24.361Z,28.88
2023-02-07T21:58:54.273Z,27.35
2023-02-07T22:01:23.332Z,27.15
2023-02-07T22:03:52.885Z,29.38
2023-02-07T22:06:21.095Z,29.90
2023-02-07T22:08:50.509Z,29.88
2023-02-07T22:11:19.631Z,27.92
2023-02-07T22:13:49.954Z,29.20
2023-02-07T22:16:18.549Z,30.02
2023-02-07T22:18:46.235Z,27.67
2023-02-07T22:21:15.212Z,29.83
2023-02-07T22:23:42.994Z,32.30
2023-02-07T22:26:10.804Z,30.35
2023-02-07T22:28:38.930Z,31.05
2023-02-07T22:31:11.033Z,29.77
2023-02-07T22:33:38.658Z,29.00
2023-02-07T22:36:12.742Z,30.80
2023-02-07T22:38:40.504Z,34.05
2023-02-07T22:41:08.146Z,33.58
2023-02-07T22:43:36.413Z,32.58
2023-02-07T22:46:04.548Z,33.97
2023-02-07T22:48:34.306Z,36.60
2023-02-07T22:51:11.312Z,33.60
2023-02-07T22:53:38.869Z,32.58
2023-02-07T22:56:06.933Z,31.83
2023-02-07T22:58:34.673Z,30.98
2023-02-07T23:01:02.162Z,30.42
2023-02-07T23:03:29.686Z,31.95
2023-02-07T23:05:58.466Z,30.98
2023-02-07T23:08:26.007Z,29.98
2023-02-07T23:10:53.463Z,32.00
2023-02-07T23:13:20.918Z,32.60
2023-02-07T23:15:49.063Z,32.08
2023-02-07T23:18:16.903Z,31.40
2023-02-07T23:20:45.423Z,32.80
2023-02-07T23:23:14.485Z,34.33
2023-02-07T23:25:43.667Z,35.50
2023-02-07T23:28:11.719Z,35.28
2023-02-07T23:30:39.676Z,34.85
2023-02-07T23:33:08.198Z,31.05
2023-02-07T23:35:35.923Z,35.38
2023-02-07T23:38:03.629Z,34.65
2023-02-07T23:40:32.404Z,34.33
2023-02-07T23:42:59.920Z,33.92
2023-02-07T23:45:27.368Z,33.08
2023-02-07T23:47:54.871Z,31.83
2023-02-07T23:50:22.499Z,30.55
2023-02-07T23:52:50.003Z,29.88
2023-02-07T23:55:17.622Z,29.52
2023-02-07T23:57:46.525Z,30.42
